Toa Alta, Puerto Rico
Current Conditions -  °F | °C
As of 6:52 PM on Sunday 23 Nov 2014 (Local Time) from TJIG Reporting Station
Broken Clouds Broken Clouds  
Wind Chill: 82°   Ceiling: 6000
Heat Index: 86°   Visibility: 10mi
Dew Point: 70°   Wind: 18mph
Humidity: 66%   Direction: 120°ESE
Pressure: 30.02"   Gusts: NA
Location:  18.39°N, 66.24°W
Report Text: TJIG 232252Z 12016KT 10SM SCT030 BKN060 28/21 A3002 RMK RY09 IN USE ATIS M
Loading
Personal Weather Stations






























Interactive Weather Map New forecast layout! Learn more

10-Day Weather Forecast

Advertisements
Track Severe Weather on mobile